sensor_id;sensor_type;location;lat;lon;timestamp;P1;durP1;ratioP1;P2;durP2;ratioP2
63342;SDS011;49465;57.664;39.686;2022-07-09T00:02:43;1.83;;;1.63;;
63342;SDS011;49465;57.664;39.686;2022-07-09T00:05:33;4.35;;;1.77;;
63342;SDS011;49465;57.664;39.686;2022-07-09T00:08:19;5.93;;;1.52;;
63342;SDS011;49465;57.664;39.686;2022-07-09T00:11:16;5.53;;;1.52;;
63342;SDS011;49465;57.664;39.686;2022-07-09T00:14:21;4.00;;;1.80;;
63342;SDS011;49465;57.664;39.686;2022-07-09T00:17:07;3.47;;;1.65;;
63342;SDS011;49465;57.664;39.686;2022-07-09T00:19:45;3.75;;;1.88;;
63342;SDS011;49465;57.664;39.686;2022-07-09T00:22:31;3.88;;;1.60;;
63342;SDS011;49465;57.664;39.686;2022-07-09T00:25:17;4.80;;;1.70;;
63342;SDS011;49465;57.664;39.686;2022-07-09T00:28:07;3.75;;;1.83;;
63342;SDS011;49465;57.664;39.686;2022-07-09T00:30:44;3.50;;;1.70;;
63342;SDS011;49465;57.664;39.686;2022-07-09T00:33:29;3.28;;;1.60;;
63342;SDS011;49465;57.664;39.686;2022-07-09T00:36:16;5.85;;;1.77;;
63342;SDS011;49465;57.664;39.686;2022-07-09T00:39:06;4.95;;;1.58;;
63342;SDS011;49465;57.664;39.686;2022-07-09T00:42:10;4.07;;;1.80;;
63342;SDS011;49465;57.664;39.686;2022-07-09T00:44:49;4.13;;;1.58;;
63342;SDS011;49465;57.664;39.686;2022-07-09T00:47:49;3.70;;;1.50;;
63342;SDS011;49465;57.664;39.686;2022-07-09T00:50:30;6.82;;;1.50;;
63342;SDS011;49465;57.664;39.686;2022-07-09T00:53:39;6.38;;;1.60;;
63342;SDS011;49465;57.664;39.686;2022-07-09T00:56:30;2.50;;;1.45;;
63342;SDS011;49465;57.664;39.686;2022-07-09T00:59:18;2.53;;;1.50;;
63342;SDS011;49465;57.664;39.686;2022-07-09T01:01:55;2.85;;;1.75;;
63342;SDS011;49465;57.664;39.686;2022-07-09T01:04:22;3.15;;;1.58;;
63342;SDS011;49465;57.664;39.686;2022-07-09T01:07:09;2.38;;;1.50;;
63342;SDS011;49465;57.664;39.686;2022-07-09T01:10:02;3.35;;;1.77;;
63342;SDS011;49465;57.664;39.686;2022-07-09T01:12:42;3.30;;;1.70;;
63342;SDS011;49465;57.664;39.686;2022-07-09T01:15:33;3.08;;;1.60;;
63342;SDS011;49465;57.664;39.686;2022-07-09T01:18:00;4.38;;;1.65;;
63342;SDS011;49465;57.664;39.686;2022-07-09T01:20:32;4.45;;;1.80;;
63342;SDS011;49465;57.664;39.686;2022-07-09T01:23:14;3.47;;;1.80;;
63342;SDS011;49465;57.664;39.686;2022-07-09T01:25:45;2.55;;;1.60;;
63342;SDS011;49465;57.664;39.686;2022-07-09T01:28:52;6.72;;;1.70;;
63342;SDS011;49465;57.664;39.686;2022-07-09T01:31:35;2.63;;;1.48;;
63342;SDS011;49465;57.664;39.686;2022-07-09T01:34:15;3.28;;;1.60;;
63342;SDS011;49465;57.664;39.686;2022-07-09T01:37:08;4.40;;;1.92;;
63342;SDS011;49465;57.664;39.686;2022-07-09T01:39:52;3.05;;;1.77;;
63342;SDS011;49465;57.664;39.686;2022-07-09T01:42:32;6.25;;;2.05;;
63342;SDS011;49465;57.664;39.686;2022-07-09T01:48:24;4.57;;;1.80;;
63342;SDS011;49465;57.664;39.686;2022-07-09T01:51:20;6.30;;;2.10;;
63342;SDS011;49465;57.664;39.686;2022-07-09T01:54:16;3.15;;;1.83;;
63342;SDS011;49465;57.664;39.686;2022-07-09T01:56:52;6.03;;;1.83;;
63342;SDS011;49465;57.664;39.686;2022-07-09T01:59:43;2.17;;;1.80;;
63342;SDS011;49465;57.664;39.686;2022-07-09T02:02:23;5.55;;;1.77;;
63342;SDS011;49465;57.664;39.686;2022-07-09T02:05:11;4.00;;;1.60;;
63342;SDS011;49465;57.664;39.686;2022-07-09T02:07:51;3.03;;;1.73;;
63342;SDS011;49465;57.664;39.686;2022-07-09T02:10:31;3.13;;;2.05;;
63342;SDS011;49465;57.664;39.686;2022-07-09T02:13:22;3.92;;;2.03;;
63342;SDS011;49465;57.664;39.686;2022-07-09T02:16:02;3.42;;;1.90;;
63342;SDS011;49465;57.664;39.686;2022-07-09T02:18:52;2.67;;;1.80;;
63342;SDS011;49465;57.664;39.686;2022-07-09T02:21:49;3.03;;;1.88;;
63342;SDS011;49465;57.664;39.686;2022-07-09T02:24:33;1.77;;;1.63;;
63342;SDS011;49465;57.664;39.686;2022-07-09T02:27:24;3.38;;;1.90;;
63342;SDS011;49465;57.664;39.686;2022-07-09T02:30:09;3.95;;;2.10;;
63342;SDS011;49465;57.664;39.686;2022-07-09T02:33:12;3.42;;;2.10;;
63342;SDS011;49465;57.664;39.686;2022-07-09T02:35:58;3.65;;;2.20;;
63342;SDS011;49465;57.664;39.686;2022-07-09T02:38:33;3.42;;;2.08;;
63342;SDS011;49465;57.664;39.686;2022-07-09T02:41:14;2.75;;;2.40;;
63342;SDS011;49465;57.664;39.686;2022-07-09T02:44:08;2.80;;;2.50;;
63342;SDS011;49465;57.664;39.686;2022-07-09T02:46:47;4.03;;;2.45;;
63342;SDS011;49465;57.664;39.686;2022-07-09T02:49:44;4.45;;;2.45;;
63342;SDS011;49465;57.664;39.686;2022-07-09T02:52:40;4.97;;;2.40;;
63342;SDS011;49465;57.664;39.686;2022-07-09T02:55:12;4.68;;;2.60;;
63342;SDS011;49465;57.664;39.686;2022-07-09T02:58:04;4.63;;;2.60;;
63342;SDS011;49465;57.664;39.686;2022-07-09T03:00:49;4.30;;;2.90;;
63342;SDS011;49465;57.664;39.686;2022-07-09T03:03:35;4.22;;;2.83;;
63342;SDS011;49465;57.664;39.686;2022-07-09T03:06:46;3.95;;;2.63;;
63342;SDS011;49465;57.664;39.686;2022-07-09T03:09:22;4.35;;;3.28;;
63342;SDS011;49465;57.664;39.686;2022-07-09T03:12:04;3.50;;;3.20;;
63342;SDS011;49465;57.664;39.686;2022-07-09T03:14:48;4.40;;;3.30;;
63342;SDS011;49465;57.664;39.686;2022-07-09T03:17:48;3.88;;;3.42;;
63342;SDS011;49465;57.664;39.686;2022-07-09T03:23:18;6.03;;;3.55;;
63342;SDS011;49465;57.664;39.686;2022-07-09T03:26:00;5.22;;;3.80;;
63342;SDS011;49465;57.664;39.686;2022-07-09T03:28:44;7.90;;;4.70;;
63342;SDS011;49465;57.664;39.686;2022-07-09T03:31:32;5.70;;;4.57;;
63342;SDS011;49465;57.664;39.686;2022-07-09T03:34:12;8.18;;;4.93;;
63342;SDS011;49465;57.664;39.686;2022-07-09T03:36:55;6.07;;;4.57;;
63342;SDS011;49465;57.664;39.686;2022-07-09T03:39:40;6.35;;;4.78;;
63342;SDS011;49465;57.664;39.686;2022-07-09T03:42:24;7.93;;;6.15;;
63342;SDS011;49465;57.664;39.686;2022-07-09T03:45:26;9.93;;;5.68;;
63342;SDS011;49465;57.664;39.686;2022-07-09T03:47:57;9.13;;;6.10;;
63342;SDS011;49465;57.664;39.686;2022-07-09T03:50:58;10.68;;;6.00;;
63342;SDS011;49465;57.664;39.686;2022-07-09T03:53:36;8.15;;;5.57;;
63342;SDS011;49465;57.664;39.686;2022-07-09T03:56:23;8.85;;;5.90;;
63342;SDS011;49465;57.664;39.686;2022-07-09T03:59:08;7.78;;;6.13;;
63342;SDS011;49465;57.664;39.686;2022-07-09T04:01:42;8.32;;;5.88;;
63342;SDS011;49465;57.664;39.686;2022-07-09T04:04:21;8.07;;;6.88;;
63342;SDS011;49465;57.664;39.686;2022-07-09T04:07:08;10.15;;;7.00;;
63342;SDS011;49465;57.664;39.686;2022-07-09T04:09:38;10.57;;;7.18;;
63342;SDS011;49465;57.664;39.686;2022-07-09T04:12:15;8.90;;;6.72;;
63342;SDS011;49465;57.664;39.686;2022-07-09T04:14:52;10.35;;;7.22;;
63342;SDS011;49465;57.664;39.686;2022-07-09T04:17:37;10.85;;;7.20;;
63342;SDS011;49465;57.664;39.686;2022-07-09T04:20:09;9.93;;;7.10;;
63342;SDS011;49465;57.664;39.686;2022-07-09T04:22:51;10.40;;;7.68;;
63342;SDS011;49465;57.664;39.686;2022-07-09T04:25:37;9.48;;;7.28;;
63342;SDS011;49465;57.664;39.686;2022-07-09T04:28:20;9.18;;;6.63;;
63342;SDS011;49465;57.664;39.686;2022-07-09T04:30:51;10.23;;;7.50;;
63342;SDS011;49465;57.664;39.686;2022-07-09T04:33:52;9.68;;;6.15;;
63342;SDS011;49465;57.664;39.686;2022-07-09T04:36:18;9.05;;;6.82;;
63342;SDS011;49465;57.664;39.686;2022-07-09T04:39:09;9.07;;;6.82;;
63342;SDS011;49465;57.664;39.686;2022-07-09T04:41:54;8.93;;;6.72;;
63342;SDS011;49465;57.664;39.686;2022-07-09T04:44:32;8.35;;;6.30;;
63342;SDS011;49465;57.664;39.686;2022-07-09T04:47:04;7.97;;;5.10;;
63342;SDS011;49465;57.664;39.686;2022-07-09T04:49:47;7.43;;;5.75;;
63342;SDS011;49465;57.664;39.686;2022-07-09T04:55:22;8.88;;;5.57;;
63342;SDS011;49465;57.664;39.686;2022-07-09T04:57:57;7.35;;;5.22;;
63342;SDS011;49465;57.664;39.686;2022-07-09T05:00:28;10.60;;;6.35;;
63342;SDS011;49465;57.664;39.686;2022-07-09T05:03:01;7.45;;;5.57;;
63342;SDS011;49465;57.664;39.686;2022-07-09T05:05:28;7.80;;;4.60;;
63342;SDS011;49465;57.664;39.686;2022-07-09T05:07:54;6.00;;;4.88;;
63342;SDS011;49465;57.664;39.686;2022-07-09T05:10:24;7.03;;;4.03;;
63342;SDS011;49465;57.664;39.686;2022-07-09T05:12:51;5.00;;;3.47;;
63342;SDS011;49465;57.664;39.686;2022-07-09T05:15:17;5.28;;;3.70;;
63342;SDS011;49465;57.664;39.686;2022-07-09T05:17:44;8.73;;;4.00;;
63342;SDS011;49465;57.664;39.686;2022-07-09T05:20:19;6.72;;;3.90;;
63342;SDS011;49465;57.664;39.686;2022-07-09T05:22:59;5.30;;;3.75;;
63342;SDS011;49465;57.664;39.686;2022-07-09T05:25:37;7.63;;;4.38;;
63342;SDS011;49465;57.664;39.686;2022-07-09T05:28:11;5.63;;;3.83;;
63342;SDS011;49465;57.664;39.686;2022-07-09T05:31:05;7.13;;;4.18;;
63342;SDS011;49465;57.664;39.686;2022-07-09T05:33:47;7.75;;;4.00;;
63342;SDS011;49465;57.664;39.686;2022-07-09T05:36:13;5.18;;;3.72;;
63342;SDS011;49465;57.664;39.686;2022-07-09T05:38:40;7.07;;;3.72;;
63342;SDS011;49465;57.664;39.686;2022-07-09T05:41:06;8.77;;;3.35;;
63342;SDS011;49465;57.664;39.686;2022-07-09T05:43:37;4.35;;;2.80;;
63342;SDS011;49465;57.664;39.686;2022-07-09T05:46:07;5.32;;;2.70;;
63342;SDS011;49465;57.664;39.686;2022-07-09T05:48:35;4.38;;;2.40;;
63342;SDS011;49465;57.664;39.686;2022-07-09T05:51:01;4.72;;;2.70;;
63342;SDS011;49465;57.664;39.686;2022-07-09T05:53:40;3.40;;;2.53;;
63342;SDS011;49465;57.664;39.686;2022-07-09T05:56:32;4.93;;;3.17;;
63342;SDS011;49465;57.664;39.686;2022-07-09T05:58:59;4.22;;;2.80;;
63342;SDS011;49465;57.664;39.686;2022-07-09T06:01:32;4.53;;;2.67;;
63342;SDS011;49465;57.664;39.686;2022-07-09T06:04:06;3.05;;;2.20;;
63342;SDS011;49465;57.664;39.686;2022-07-09T06:06:35;2.28;;;2.08;;
63342;SDS011;49465;57.664;39.686;2022-07-09T06:09:13;2.42;;;1.95;;
63342;SDS011;49465;57.664;39.686;2022-07-09T06:11:39;4.45;;;1.70;;
63342;SDS011;49465;57.664;39.686;2022-07-09T06:14:10;3.78;;;1.90;;
63342;SDS011;49465;57.664;39.686;2022-07-09T06:16:52;2.92;;;1.52;;
63342;SDS011;49465;57.664;39.686;2022-07-09T06:19:32;2.55;;;1.80;;
63342;SDS011;49465;57.664;39.686;2022-07-09T06:22:11;2.33;;;1.67;;
63342;SDS011;49465;57.664;39.686;2022-07-09T06:24:58;4.07;;;1.70;;
63342;SDS011;49465;57.664;39.686;2022-07-09T06:27:29;2.45;;;1.83;;
63342;SDS011;49465;57.664;39.686;2022-07-09T06:29:58;3.53;;;1.67;;
63342;SDS011;49465;57.664;39.686;2022-07-09T06:32:25;3.17;;;1.67;;
63342;SDS011;49465;57.664;39.686;2022-07-09T06:35:02;2.90;;;1.63;;
63342;SDS011;49465;57.664;39.686;2022-07-09T06:37:33;2.10;;;1.20;;
63342;SDS011;49465;57.664;39.686;2022-07-09T06:40:00;2.85;;;1.30;;
63342;SDS011;49465;57.664;39.686;2022-07-09T06:42:26;2.25;;;1.35;;
63342;SDS011;49465;57.664;39.686;2022-07-09T06:44:56;3.22;;;1.30;;
63342;SDS011;49465;57.664;39.686;2022-07-09T06:47:26;2.72;;;1.20;;
63342;SDS011;49465;57.664;39.686;2022-07-09T06:50:08;1.67;;;1.15;;
63342;SDS011;49465;57.664;39.686;2022-07-09T06:52:35;2.88;;;1.40;;
63342;SDS011;49465;57.664;39.686;2022-07-09T06:55:04;4.20;;;1.20;;
63342;SDS011;49465;57.664;39.686;2022-07-09T06:57:40;1.75;;;1.10;;
63342;SDS011;49465;57.664;39.686;2022-07-09T07:00:14;3.40;;;1.20;;
63342;SDS011;49465;57.664;39.686;2022-07-09T07:02:54;2.22;;;1.00;;
63342;SDS011;49465;57.664;39.686;2022-07-09T07:05:51;1.17;;;1.05;;
63342;SDS011;49465;57.664;39.686;2022-07-09T07:08:27;1.50;;;1.20;;
63342;SDS011;49465;57.664;39.686;2022-07-09T07:10:59;1.02;;;0.90;;
63342;SDS011;49465;57.664;39.686;2022-07-09T07:13:30;2.42;;;0.90;;
63342;SDS011;49465;57.664;39.686;2022-07-09T07:15:57;0.80;;;0.80;;
63342;SDS011;49465;57.664;39.686;2022-07-09T07:18:29;2.65;;;1.15;;
63342;SDS011;49465;57.664;39.686;2022-07-09T07:21:07;1.88;;;1.10;;
63342;SDS011;49465;57.664;39.686;2022-07-09T07:23:47;2.47;;;1.00;;
63342;SDS011;49465;57.664;39.686;2022-07-09T07:26:30;1.10;;;1.00;;
63342;SDS011;49465;57.664;39.686;2022-07-09T07:29:12;1.65;;;0.98;;
63342;SDS011;49465;57.664;39.686;2022-07-09T07:31:44;1.90;;;1.00;;
63342;SDS011;49465;57.664;39.686;2022-07-09T07:34:27;2.38;;;1.25;;
63342;SDS011;49465;57.664;39.686;2022-07-09T07:36:58;13.55;;;1.95;;
63342;SDS011;49465;57.664;39.686;2022-07-09T07:39:27;4.75;;;1.30;;
63342;SDS011;49465;57.664;39.686;2022-07-09T07:42:02;1.30;;;1.10;;
63342;SDS011;49465;57.664;39.686;2022-07-09T07:44:36;3.08;;;1.10;;
63342;SDS011;49465;57.664;39.686;2022-07-09T07:47:03;1.73;;;0.98;;
63342;SDS011;49465;57.664;39.686;2022-07-09T07:49:33;1.85;;;1.20;;
63342;SDS011;49465;57.664;39.686;2022-07-09T07:52:04;2.05;;;1.10;;
63342;SDS011;49465;57.664;39.686;2022-07-09T07:54:31;1.45;;;1.20;;
63342;SDS011;49465;57.664;39.686;2022-07-09T07:57:06;2.83;;;1.20;;
63342;SDS011;49465;57.664;39.686;2022-07-09T07:59:48;1.47;;;1.17;;
63342;SDS011;49465;57.664;39.686;2022-07-09T08:02:25;2.22;;;1.10;;
63342;SDS011;49465;57.664;39.686;2022-07-09T08:04:51;1.38;;;1.05;;
63342;SDS011;49465;57.664;39.686;2022-07-09T08:07:21;4.82;;;1.40;;
63342;SDS011;49465;57.664;39.686;2022-07-09T08:09:54;2.05;;;1.40;;
63342;SDS011;49465;57.664;39.686;2022-07-09T08:12:34;2.58;;;1.33;;
63342;SDS011;49465;57.664;39.686;2022-07-09T08:15:15;1.42;;;1.33;;
63342;SDS011;49465;57.664;39.686;2022-07-09T08:17:49;2.85;;;1.90;;
63342;SDS011;49465;57.664;39.686;2022-07-09T08:20:20;2.80;;;1.30;;
63342;SDS011;49465;57.664;39.686;2022-07-09T08:23:02;1.35;;;1.20;;
63342;SDS011;49465;57.664;39.686;2022-07-09T08:25:44;2.75;;;1.10;;
63342;SDS011;49465;57.664;39.686;2022-07-09T08:28:16;1.60;;;1.10;;
63342;SDS011;49465;57.664;39.686;2022-07-09T08:30:54;1.48;;;0.80;;
63342;SDS011;49465;57.664;39.686;2022-07-09T08:33:48;0.80;;;0.70;;
63342;SDS011;49465;57.664;39.686;2022-07-09T08:36:33;49.65;;;4.05;;
63342;SDS011;49465;57.664;39.686;2022-07-09T08:39:14;2.00;;;0.80;;
63342;SDS011;49465;57.664;39.686;2022-07-09T08:42:12;3.97;;;1.00;;
63342;SDS011;49465;57.664;39.686;2022-07-09T08:44:59;1.88;;;0.90;;
63342;SDS011;49465;57.664;39.686;2022-07-09T08:50:23;1.77;;;0.85;;
63342;SDS011;49465;57.664;39.686;2022-07-09T08:52:56;1.48;;;0.88;;
63342;SDS011;49465;57.664;39.686;2022-07-09T08:55:39;3.40;;;0.80;;
63342;SDS011;49465;57.664;39.686;2022-07-09T08:58:17;0.90;;;0.80;;
63342;SDS011;49465;57.664;39.686;2022-07-09T09:00:48;2.55;;;1.10;;
63342;SDS011;49465;57.664;39.686;2022-07-09T09:03:18;1.17;;;0.90;;
63342;SDS011;49465;57.664;39.686;2022-07-09T09:06:04;12.10;;;1.30;;
63342;SDS011;49465;57.664;39.686;2022-07-09T09:08:52;2.85;;;1.00;;
63342;SDS011;49465;57.664;39.686;2022-07-09T09:11:41;2.15;;;1.00;;
63342;SDS011;49465;57.664;39.686;2022-07-09T09:14:25;2.33;;;0.80;;
63342;SDS011;49465;57.664;39.686;2022-07-09T09:17:22;2.47;;;0.90;;
63342;SDS011;49465;57.664;39.686;2022-07-09T09:20:02;1.48;;;0.85;;
63342;SDS011;49465;57.664;39.686;2022-07-09T09:25:46;3.00;;;1.02;;
63342;SDS011;49465;57.664;39.686;2022-07-09T09:28:20;1.95;;;0.75;;
63342;SDS011;49465;57.664;39.686;2022-07-09T09:31:30;1.25;;;0.90;;
63342;SDS011;49465;57.664;39.686;2022-07-09T09:34:18;3.03;;;1.00;;
63342;SDS011;49465;57.664;39.686;2022-07-09T09:37:46;2.25;;;0.85;;
63342;SDS011;49465;57.664;39.686;2022-07-09T09:40:25;3.65;;;1.10;;
63342;SDS011;49465;57.664;39.686;2022-07-09T09:43:06;1.42;;;0.80;;
63342;SDS011;49465;57.664;39.686;2022-07-09T09:45:45;1.20;;;1.00;;
63342;SDS011;49465;57.664;39.686;2022-07-09T09:48:28;4.60;;;1.02;;
63342;SDS011;49465;57.664;39.686;2022-07-09T09:51:06;1.90;;;0.80;;
63342;SDS011;49465;57.664;39.686;2022-07-09T09:53:47;5.97;;;0.98;;
63342;SDS011;49465;57.664;39.686;2022-07-09T09:56:46;3.08;;;1.00;;
63342;SDS011;49465;57.664;39.686;2022-07-09T09:59:53;2.42;;;0.75;;
63342;SDS011;49465;57.664;39.686;2022-07-09T10:02:23;1.23;;;1.00;;
63342;SDS011;49465;57.664;39.686;2022-07-09T10:05:16;0.93;;;0.90;;
63342;SDS011;49465;57.664;39.686;2022-07-09T10:08:17;1.85;;;1.30;;
63342;SDS011;49465;57.664;39.686;2022-07-09T10:10:58;1.95;;;0.85;;
63342;SDS011;49465;57.664;39.686;2022-07-09T10:13:58;1.95;;;1.10;;
63342;SDS011;49465;57.664;39.686;2022-07-09T10:16:47;2.35;;;0.95;;
63342;SDS011;49465;57.664;39.686;2022-07-09T10:20:28;0.98;;;0.90;;
63342;SDS011;49465;57.664;39.686;2022-07-09T10:25:56;1.50;;;1.10;;
63342;SDS011;49465;57.664;39.686;2022-07-09T10:28:19;1.95;;;0.90;;
63342;SDS011;49465;57.664;39.686;2022-07-09T10:31:05;1.60;;;1.00;;
63342;SDS011;49465;57.664;39.686;2022-07-09T10:33:42;1.52;;;1.00;;
63342;SDS011;49465;57.664;39.686;2022-07-09T10:39:19;1.10;;;0.93;;
63342;SDS011;49465;57.664;39.686;2022-07-09T10:42:06;1.27;;;0.93;;
63342;SDS011;49465;57.664;39.686;2022-07-09T10:44:46;2.15;;;1.00;;
63342;SDS011;49465;57.664;39.686;2022-07-09T10:47:19;1.52;;;1.20;;
63342;SDS011;49465;57.664;39.686;2022-07-09T10:50:04;1.30;;;0.90;;
63342;SDS011;49465;57.664;39.686;2022-07-09T10:52:46;2.60;;;1.02;;
63342;SDS011;49465;57.664;39.686;2022-07-09T10:55:34;2.55;;;1.00;;
63342;SDS011;49465;57.664;39.686;2022-07-09T10:58:16;1.35;;;1.00;;
63342;SDS011;49465;57.664;39.686;2022-07-09T11:03:32;15.85;;;1.40;;
63342;SDS011;49465;57.664;39.686;2022-07-09T11:06:31;6.60;;;1.20;;
63342;SDS011;49465;57.664;39.686;2022-07-09T11:09:27;5.88;;;1.77;;
63342;SDS011;49465;57.664;39.686;2022-07-09T11:11:58;1.23;;;1.00;;
63342;SDS011;49465;57.664;39.686;2022-07-09T11:14:53;2.78;;;1.20;;
63342;SDS011;49465;57.664;39.686;2022-07-09T11:17:38;7.85;;;1.35;;
63342;SDS011;49465;57.664;39.686;2022-07-09T11:20:11;3.92;;;1.08;;
63342;SDS011;49465;57.664;39.686;2022-07-09T11:22:56;1.30;;;1.20;;
63342;SDS011;49465;57.664;39.686;2022-07-09T11:25:38;1.52;;;1.30;;
63342;SDS011;49465;57.664;39.686;2022-07-09T11:28:23;2.50;;;1.23;;
63342;SDS011;49465;57.664;39.686;2022-07-09T11:31:12;1.38;;;1.25;;
63342;SDS011;49465;57.664;39.686;2022-07-09T11:33:47;2.35;;;1.13;;
63342;SDS011;49465;57.664;39.686;2022-07-09T11:36:41;3.20;;;2.63;;
63342;SDS011;49465;57.664;39.686;2022-07-09T11:39:29;4.22;;;1.40;;
63342;SDS011;49465;57.664;39.686;2022-07-09T11:42:05;1.90;;;1.20;;
63342;SDS011;49465;57.664;39.686;2022-07-09T11:44:42;8.15;;;1.40;;
63342;SDS011;49465;57.664;39.686;2022-07-09T11:50:28;3.25;;;1.13;;
63342;SDS011;49465;57.664;39.686;2022-07-09T11:53:29;5.07;;;1.27;;
63342;SDS011;49465;57.664;39.686;2022-07-09T11:55:58;1.95;;;1.10;;
63342;SDS011;49465;57.664;39.686;2022-07-09T11:58:36;3.67;;;1.20;;
63342;SDS011;49465;57.664;39.686;2022-07-09T12:01:27;4.90;;;1.42;;
63342;SDS011;49465;57.664;39.686;2022-07-09T12:04:28;3.67;;;2.15;;
63342;SDS011;49465;57.664;39.686;2022-07-09T12:07:31;2.15;;;1.50;;
63342;SDS011;49465;57.664;39.686;2022-07-09T12:10:37;1.80;;;1.50;;
63342;SDS011;49465;57.664;39.686;2022-07-09T12:13:17;1.52;;;1.23;;
63342;SDS011;49465;57.664;39.686;2022-07-09T12:15:57;1.33;;;1.15;;
63342;SDS011;49465;57.664;39.686;2022-07-09T12:18:57;3.10;;;1.10;;
63342;SDS011;49465;57.664;39.686;2022-07-09T12:21:50;1.73;;;1.15;;
63342;SDS011;49465;57.664;39.686;2022-07-09T12:24:42;1.20;;;1.10;;
63342;SDS011;49465;57.664;39.686;2022-07-09T12:27:42;1.88;;;1.15;;
63342;SDS011;49465;57.664;39.686;2022-07-09T12:30:22;1.63;;;1.17;;
63342;SDS011;49465;57.664;39.686;2022-07-09T12:33:09;3.67;;;1.30;;
63342;SDS011;49465;57.664;39.686;2022-07-09T12:36:02;1.63;;;1.20;;
63342;SDS011;49465;57.664;39.686;2022-07-09T12:38:51;1.42;;;1.20;;
63342;SDS011;49465;57.664;39.686;2022-07-09T12:41:29;2.08;;;1.05;;
63342;SDS011;49465;57.664;39.686;2022-07-09T12:44:28;1.30;;;1.10;;
63342;SDS011;49465;57.664;39.686;2022-07-09T12:47:07;9.20;;;1.20;;
63342;SDS011;49465;57.664;39.686;2022-07-09T12:49:47;2.90;;;1.10;;
63342;SDS011;49465;57.664;39.686;2022-07-09T12:52:16;2.40;;;1.08;;
63342;SDS011;49465;57.664;39.686;2022-07-09T12:54:48;1.10;;;1.00;;
63342;SDS011;49465;57.664;39.686;2022-07-09T12:57:44;2.72;;;1.10;;
63342;SDS011;49465;57.664;39.686;2022-07-09T13:00:39;1.15;;;0.95;;
63342;SDS011;49465;57.664;39.686;2022-07-09T13:03:12;3.78;;;1.05;;
63342;SDS011;49465;57.664;39.686;2022-07-09T13:05:55;1.90;;;1.00;;
63342;SDS011;49465;57.664;39.686;2022-07-09T13:08:27;5.28;;;1.60;;
63342;SDS011;49465;57.664;39.686;2022-07-09T13:11:12;3.55;;;1.10;;
63342;SDS011;49465;57.664;39.686;2022-07-09T13:13:44;2.38;;;1.10;;
63342;SDS011;49465;57.664;39.686;2022-07-09T13:16:11;2.05;;;1.08;;
63342;SDS011;49465;57.664;39.686;2022-07-09T13:18:38;2.75;;;1.20;;
63342;SDS011;49465;57.664;39.686;2022-07-09T13:21:31;11.70;;;2.10;;
63342;SDS011;49465;57.664;39.686;2022-07-09T13:23:57;4.00;;;1.10;;
63342;SDS011;49465;57.664;39.686;2022-07-09T13:26:33;2.17;;;1.00;;
63342;SDS011;49465;57.664;39.686;2022-07-09T13:29:02;5.68;;;1.50;;
63342;SDS011;49465;57.664;39.686;2022-07-09T13:31:34;4.25;;;1.50;;
63342;SDS011;49465;57.664;39.686;2022-07-09T13:34:12;5.28;;;1.40;;
63342;SDS011;49465;57.664;39.686;2022-07-09T13:36:38;2.67;;;1.30;;
63342;SDS011;49465;57.664;39.686;2022-07-09T13:39:20;4.05;;;1.38;;
63342;SDS011;49465;57.664;39.686;2022-07-09T13:41:47;7.78;;;1.75;;
63342;SDS011;49465;57.664;39.686;2022-07-09T13:44:36;3.72;;;1.40;;
63342;SDS011;49465;57.664;39.686;2022-07-09T13:47:24;3.03;;;1.30;;
63342;SDS011;49465;57.664;39.686;2022-07-09T13:49:54;1.63;;;1.30;;
63342;SDS011;49465;57.664;39.686;2022-07-09T13:52:26;1.83;;;1.25;;
63342;SDS011;49465;57.664;39.686;2022-07-09T13:55:11;4.53;;;1.40;;
63342;SDS011;49465;57.664;39.686;2022-07-09T13:57:38;6.13;;;1.60;;
63342;SDS011;49465;57.664;39.686;2022-07-09T14:00:05;1.85;;;1.23;;
63342;SDS011;49465;57.664;39.686;2022-07-09T14:02:35;3.88;;;2.72;;
63342;SDS011;49465;57.664;39.686;2022-07-09T14:05:06;5.72;;;1.83;;
63342;SDS011;49465;57.664;39.686;2022-07-09T14:07:37;2.08;;;1.20;;
63342;SDS011;49465;57.664;39.686;2022-07-09T14:10:09;2.77;;;1.50;;
63342;SDS011;49465;57.664;39.686;2022-07-09T14:12:35;8.97;;;1.57;;
63342;SDS011;49465;57.664;39.686;2022-07-09T14:15:08;5.70;;;2.03;;
63342;SDS011;49465;57.664;39.686;2022-07-09T14:17:38;5.97;;;1.80;;
63342;SDS011;49465;57.664;39.686;2022-07-09T14:20:08;3.35;;;1.50;;
63342;SDS011;49465;57.664;39.686;2022-07-09T14:22:40;4.78;;;1.40;;
63342;SDS011;49465;57.664;39.686;2022-07-09T14:25:18;24.17;;;3.63;;
63342;SDS011;49465;57.664;39.686;2022-07-09T14:28:04;7.18;;;1.60;;
63342;SDS011;49465;57.664;39.686;2022-07-09T14:30:36;6.25;;;1.40;;
63342;SDS011;49465;57.664;39.686;2022-07-09T14:33:10;2.45;;;1.30;;
63342;SDS011;49465;57.664;39.686;2022-07-09T14:35:46;2.72;;;1.27;;
63342;SDS011;49465;57.664;39.686;2022-07-09T14:38:19;2.33;;;1.40;;
63342;SDS011;49465;57.664;39.686;2022-07-09T14:40:45;1.65;;;1.40;;
63342;SDS011;49465;57.664;39.686;2022-07-09T14:43:22;2.80;;;1.60;;
63342;SDS011;49465;57.664;39.686;2022-07-09T14:46:05;4.15;;;1.50;;
63342;SDS011;49465;57.664;39.686;2022-07-09T14:48:35;4.20;;;1.40;;
63342;SDS011;49465;57.664;39.686;2022-07-09T14:51:06;4.30;;;1.50;;
63342;SDS011;49465;57.664;39.686;2022-07-09T14:53:33;2.85;;;1.52;;
63342;SDS011;49465;57.664;39.686;2022-07-09T14:56:03;2.50;;;1.67;;
63342;SDS011;49465;57.664;39.686;2022-07-09T14:58:38;1.63;;;1.45;;
63342;SDS011;49465;57.664;39.686;2022-07-09T15:01:04;4.72;;;1.40;;
63342;SDS011;49465;57.664;39.686;2022-07-09T15:03:31;3.13;;;1.40;;
63342;SDS011;49465;57.664;39.686;2022-07-09T15:05:58;1.65;;;1.50;;
63342;SDS011;49465;57.664;39.686;2022-07-09T15:08:29;5.15;;;1.60;;
63342;SDS011;49465;57.664;39.686;2022-07-09T15:10:55;1.73;;;1.57;;
63342;SDS011;49465;57.664;39.686;2022-07-09T15:13:22;5.15;;;1.50;;
63342;SDS011;49465;57.664;39.686;2022-07-09T15:15:55;5.03;;;1.40;;
63342;SDS011;49465;57.664;39.686;2022-07-09T15:18:26;4.43;;;1.83;;
63342;SDS011;49465;57.664;39.686;2022-07-09T15:21:01;2.75;;;1.52;;
63342;SDS011;49465;57.664;39.686;2022-07-09T15:23:50;2.55;;;1.58;;
63342;SDS011;49465;57.664;39.686;2022-07-09T15:26:22;2.10;;;1.58;;
63342;SDS011;49465;57.664;39.686;2022-07-09T15:29:19;3.08;;;1.52;;
63342;SDS011;49465;57.664;39.686;2022-07-09T15:32:08;2.75;;;1.90;;
63342;SDS011;49465;57.664;39.686;2022-07-09T15:34:47;7.07;;;5.53;;
63342;SDS011;49465;57.664;39.686;2022-07-09T15:37:35;5.25;;;2.25;;
63342;SDS011;49465;57.664;39.686;2022-07-09T15:40:07;2.33;;;2.00;;
63342;SDS011;49465;57.664;39.686;2022-07-09T15:42:49;3.08;;;1.90;;
63342;SDS011;49465;57.664;39.686;2022-07-09T15:45:30;4.43;;;2.28;;
63342;SDS011;49465;57.664;39.686;2022-07-09T15:48:06;4.55;;;2.20;;
63342;SDS011;49465;57.664;39.686;2022-07-09T15:50:50;4.53;;;2.22;;
63342;SDS011;49465;57.664;39.686;2022-07-09T15:53:25;4.03;;;2.10;;
63342;SDS011;49465;57.664;39.686;2022-07-09T15:56:23;6.35;;;2.53;;
63342;SDS011;49465;57.664;39.686;2022-07-09T15:58:55;10.85;;;2.80;;
63342;SDS011;49465;57.664;39.686;2022-07-09T16:01:29;9.50;;;2.50;;
63342;SDS011;49465;57.664;39.686;2022-07-09T16:04:04;7.90;;;2.88;;
63342;SDS011;49465;57.664;39.686;2022-07-09T16:06:38;8.65;;;2.67;;
63342;SDS011;49465;57.664;39.686;2022-07-09T16:09:09;8.07;;;3.17;;
63342;SDS011;49465;57.664;39.686;2022-07-09T16:11:45;14.35;;;3.20;;
63342;SDS011;49465;57.664;39.686;2022-07-09T16:14:29;12.82;;;3.58;;
63342;SDS011;49465;57.664;39.686;2022-07-09T16:17:05;17.30;;;3.30;;
63342;SDS011;49465;57.664;39.686;2022-07-09T16:19:39;12.75;;;5.32;;